sensor_id;sensor_type;location;lat;lon;timestamp;P1;durP1;ratioP1;P2;durP2;ratioP2
40953;SDS011;26686;50.130;8.710;2023-06-22T00:02:23;5.07;;;4.68;;
40953;SDS011;26686;50.130;8.710;2023-06-22T00:07:24;5.88;;;5.38;;
40953;SDS011;26686;50.130;8.710;2023-06-22T00:12:26;5.28;;;4.88;;
40953;SDS011;26686;50.130;8.710;2023-06-22T00:17:27;5.15;;;4.75;;
40953;SDS011;26686;50.130;8.710;2023-06-22T00:22:28;5.07;;;4.68;;
40953;SDS011;26686;50.130;8.710;2023-06-22T00:27:30;5.40;;;5.00;;
40953;SDS011;26686;50.130;8.710;2023-06-22T00:32:32;5.10;;;4.63;;
40953;SDS011;26686;50.130;8.710;2023-06-22T00:37:33;5.50;;;5.00;;
40953;SDS011;26686;50.130;8.710;2023-06-22T00:42:40;5.05;;;4.55;;
40953;SDS011;26686;50.130;8.710;2023-06-22T00:47:42;5.35;;;4.85;;
40953;SDS011;26686;50.130;8.710;2023-06-22T00:52:44;6.43;;;5.35;;
40953;SDS011;26686;50.130;8.710;2023-06-22T00:57:47;5.07;;;4.60;;
40953;SDS011;26686;50.130;8.710;2023-06-22T01:02:50;5.40;;;4.90;;
40953;SDS011;26686;50.130;8.710;2023-06-22T01:13:01;5.50;;;4.97;;
40953;SDS011;26686;50.130;8.710;2023-06-22T01:18:05;5.53;;;4.70;;
40953;SDS011;26686;50.130;8.710;2023-06-22T01:28:52;5.93;;;5.43;;
40953;SDS011;26686;50.130;8.710;2023-06-22T01:33:57;5.07;;;4.68;;
40953;SDS011;26686;50.130;8.710;2023-06-22T01:39:02;6.20;;;5.70;;
40953;SDS011;26686;50.130;8.710;2023-06-22T01:44:06;6.00;;;5.35;;
40953;SDS011;26686;50.130;8.710;2023-06-22T01:49:08;6.65;;;6.05;;
40953;SDS011;26686;50.130;8.710;2023-06-22T01:54:10;6.30;;;5.75;;
40953;SDS011;26686;50.130;8.710;2023-06-22T01:59:12;6.47;;;5.90;;
40953;SDS011;26686;50.130;8.710;2023-06-22T02:04:34;6.80;;;6.20;;
40953;SDS011;26686;50.130;8.710;2023-06-22T02:09:44;6.28;;;5.68;;
40953;SDS011;26686;50.130;8.710;2023-06-22T02:14:46;6.00;;;5.50;;
40953;SDS011;26686;50.130;8.710;2023-06-22T02:19:49;7.23;;;6.43;;
40953;SDS011;26686;50.130;8.710;2023-06-22T02:24:50;7.03;;;6.35;;
40953;SDS011;26686;50.130;8.710;2023-06-22T02:29:52;6.53;;;5.93;;
40953;SDS011;26686;50.130;8.710;2023-06-22T02:34:53;6.10;;;5.57;;
40953;SDS011;26686;50.130;8.710;2023-06-22T02:39:55;6.30;;;5.80;;
40953;SDS011;26686;50.130;8.710;2023-06-22T02:44:57;6.10;;;5.50;;
40953;SDS011;26686;50.130;8.710;2023-06-22T02:49:58;6.90;;;6.30;;
40953;SDS011;26686;50.130;8.710;2023-06-22T02:55:00;6.68;;;6.13;;
40953;SDS011;26686;50.130;8.710;2023-06-22T03:00:02;6.03;;;5.53;;
40953;SDS011;26686;50.130;8.710;2023-06-22T03:05:25;6.90;;;6.20;;
40953;SDS011;26686;50.130;8.710;2023-06-22T03:10:27;6.97;;;6.38;;
40953;SDS011;26686;50.130;8.710;2023-06-22T03:15:29;6.93;;;6.20;;
40953;SDS011;26686;50.130;8.710;2023-06-22T03:20:32;6.93;;;6.30;;
40953;SDS011;26686;50.130;8.710;2023-06-22T03:25:35;6.80;;;6.30;;
40953;SDS011;26686;50.130;8.710;2023-06-22T03:30:36;6.30;;;5.80;;
40953;SDS011;26686;50.130;8.710;2023-06-22T03:35:38;6.95;;;6.32;;
40953;SDS011;26686;50.130;8.710;2023-06-22T03:40:39;7.00;;;6.43;;
40953;SDS011;26686;50.130;8.710;2023-06-22T03:45:41;7.00;;;6.30;;
40953;SDS011;26686;50.130;8.710;2023-06-22T03:50:42;7.65;;;7.03;;
40953;SDS011;26686;50.130;8.710;2023-06-22T03:55:48;7.95;;;6.55;;
40953;SDS011;26686;50.130;8.710;2023-06-22T04:00:52;6.85;;;6.07;;
40953;SDS011;26686;50.130;8.710;2023-06-22T04:05:54;7.53;;;6.93;;
40953;SDS011;26686;50.130;8.710;2023-06-22T04:10:55;7.25;;;6.53;;
40953;SDS011;26686;50.130;8.710;2023-06-22T04:15:57;7.80;;;7.10;;
40953;SDS011;26686;50.130;8.710;2023-06-22T04:20:59;7.47;;;6.88;;
40953;SDS011;26686;50.130;8.710;2023-06-22T04:26:00;7.43;;;6.70;;
40953;SDS011;26686;50.130;8.710;2023-06-22T04:31:02;7.80;;;7.00;;
40953;SDS011;26686;50.130;8.710;2023-06-22T04:36:04;7.78;;;7.07;;
40953;SDS011;26686;50.130;8.710;2023-06-22T04:41:05;7.93;;;7.22;;
40953;SDS011;26686;50.130;8.710;2023-06-22T04:46:07;8.30;;;7.60;;
40953;SDS011;26686;50.130;8.710;2023-06-22T04:51:09;8.27;;;7.47;;
40953;SDS011;26686;50.130;8.710;2023-06-22T04:56:11;7.95;;;7.20;;
40953;SDS011;26686;50.130;8.710;2023-06-22T05:01:13;7.65;;;6.85;;
40953;SDS011;26686;50.130;8.710;2023-06-22T05:06:14;8.65;;;6.20;;
40953;SDS011;26686;50.130;8.710;2023-06-22T05:11:16;7.65;;;6.97;;
40953;SDS011;26686;50.130;8.710;2023-06-22T05:16:18;7.78;;;7.05;;
40953;SDS011;26686;50.130;8.710;2023-06-22T05:21:26;7.25;;;6.65;;
40953;SDS011;26686;50.130;8.710;2023-06-22T05:26:28;6.75;;;6.15;;
40953;SDS011;26686;50.130;8.710;2023-06-22T05:31:49;7.03;;;6.53;;
40953;SDS011;26686;50.130;8.710;2023-06-22T05:37:08;6.47;;;5.88;;
40953;SDS011;26686;50.130;8.710;2023-06-22T05:42:10;7.40;;;6.70;;
40953;SDS011;26686;50.130;8.710;2023-06-22T05:47:14;7.65;;;6.93;;
40953;SDS011;26686;50.130;8.710;2023-06-22T05:52:15;7.68;;;6.90;;
40953;SDS011;26686;50.130;8.710;2023-06-22T05:57:17;7.45;;;6.45;;
40953;SDS011;26686;50.130;8.710;2023-06-22T06:02:18;7.90;;;7.10;;
40953;SDS011;26686;50.130;8.710;2023-06-22T06:07:20;8.07;;;7.35;;
40953;SDS011;26686;50.130;8.710;2023-06-22T06:12:22;7.78;;;7.07;;
40953;SDS011;26686;50.130;8.710;2023-06-22T06:17:24;7.90;;;6.80;;
40953;SDS011;26686;50.130;8.710;2023-06-22T06:22:25;8.15;;;7.55;;
40953;SDS011;26686;50.130;8.710;2023-06-22T06:27:27;9.23;;;7.78;;
40953;SDS011;26686;50.130;8.710;2023-06-22T06:32:30;7.93;;;7.22;;
40953;SDS011;26686;50.130;8.710;2023-06-22T06:37:33;8.48;;;7.10;;
40953;SDS011;26686;50.130;8.710;2023-06-22T06:42:37;9.48;;;7.32;;
40953;SDS011;26686;50.130;8.710;2023-06-22T06:47:41;7.28;;;6.28;;
40953;SDS011;26686;50.130;8.710;2023-06-22T06:52:43;7.22;;;6.60;;
40953;SDS011;26686;50.130;8.710;2023-06-22T06:57:45;7.07;;;6.45;;
40953;SDS011;26686;50.130;8.710;2023-06-22T07:02:49;7.53;;;6.93;;
40953;SDS011;26686;50.130;8.710;2023-06-22T07:07:50;11.00;;;7.05;;
40953;SDS011;26686;50.130;8.710;2023-06-22T07:12:52;8.73;;;7.78;;
40953;SDS011;26686;50.130;8.710;2023-06-22T07:17:54;8.40;;;7.30;;
40953;SDS011;26686;50.130;8.710;2023-06-22T07:22:55;11.05;;;7.38;;
40953;SDS011;26686;50.130;8.710;2023-06-22T07:28:02;8.40;;;7.63;;
40953;SDS011;26686;50.130;8.710;2023-06-22T07:33:05;7.25;;;6.55;;
40953;SDS011;26686;50.130;8.710;2023-06-22T07:38:10;7.75;;;6.75;;
40953;SDS011;26686;50.130;8.710;2023-06-22T07:43:11;10.35;;;7.97;;
40953;SDS011;26686;50.130;8.710;2023-06-22T07:48:13;8.30;;;7.30;;
40953;SDS011;26686;50.130;8.710;2023-06-22T07:53:14;8.95;;;8.05;;
40953;SDS011;26686;50.130;8.710;2023-06-22T07:58:16;8.73;;;7.80;;
40953;SDS011;26686;50.130;8.710;2023-06-22T08:03:20;7.57;;;6.82;;
40953;SDS011;26686;50.130;8.710;2023-06-22T08:08:21;7.72;;;7.03;;
40953;SDS011;26686;50.130;8.710;2023-06-22T08:13:23;11.20;;;7.65;;
40953;SDS011;26686;50.130;8.710;2023-06-22T08:18:27;7.72;;;7.07;;
40953;SDS011;26686;50.130;8.710;2023-06-22T08:23:29;7.50;;;6.88;;
40953;SDS011;26686;50.130;8.710;2023-06-22T08:28:31;8.25;;;7.45;;
40953;SDS011;26686;50.130;8.710;2023-06-22T08:33:33;9.27;;;8.48;;
40953;SDS011;26686;50.130;8.710;2023-06-22T08:38:35;7.53;;;6.82;;
40953;SDS011;26686;50.130;8.710;2023-06-22T08:43:36;8.93;;;8.07;;
40953;SDS011;26686;50.130;8.710;2023-06-22T08:48:38;8.18;;;7.38;;
40953;SDS011;26686;50.130;8.710;2023-06-22T08:53:40;8.20;;;7.43;;
40953;SDS011;26686;50.130;8.710;2023-06-22T08:58:41;8.10;;;7.38;;
40953;SDS011;26686;50.130;8.710;2023-06-22T09:03:43;8.45;;;7.75;;
40953;SDS011;26686;50.130;8.710;2023-06-22T09:08:44;8.75;;;7.85;;
40953;SDS011;26686;50.130;8.710;2023-06-22T09:13:47;8.52;;;7.82;;
40953;SDS011;26686;50.130;8.710;2023-06-22T09:18:49;7.87;;;7.27;;
40953;SDS011;26686;50.130;8.710;2023-06-22T09:23:52;8.10;;;7.30;;
40953;SDS011;26686;50.130;8.710;2023-06-22T09:28:54;8.63;;;7.77;;
40953;SDS011;26686;50.130;8.710;2023-06-22T09:33:56;7.82;;;7.20;;
40953;SDS011;26686;50.130;8.710;2023-06-22T09:38:57;8.00;;;7.20;;
40953;SDS011;26686;50.130;8.710;2023-06-22T09:44:00;7.45;;;6.85;;
40953;SDS011;26686;50.130;8.710;2023-06-22T09:49:01;6.97;;;6.40;;
40953;SDS011;26686;50.130;8.710;2023-06-22T09:54:03;8.07;;;7.27;;
40953;SDS011;26686;50.130;8.710;2023-06-22T09:59:05;7.55;;;6.90;;
40953;SDS011;26686;50.130;8.710;2023-06-22T10:04:18;6.85;;;6.25;;
40953;SDS011;26686;50.130;8.710;2023-06-22T10:09:19;5.90;;;5.30;;
40953;SDS011;26686;50.130;8.710;2023-06-22T10:14:22;6.13;;;5.60;;
40953;SDS011;26686;50.130;8.710;2023-06-22T10:19:25;6.18;;;5.65;;
40953;SDS011;26686;50.130;8.710;2023-06-22T10:24:27;6.20;;;5.70;;
40953;SDS011;26686;50.130;8.710;2023-06-22T10:29:28;7.33;;;6.27;;
40953;SDS011;26686;50.130;8.710;2023-06-22T10:34:31;7.50;;;5.88;;
40953;SDS011;26686;50.130;8.710;2023-06-22T10:39:34;5.80;;;5.30;;
40953;SDS011;26686;50.130;8.710;2023-06-22T10:44:36;6.32;;;5.63;;
40953;SDS011;26686;50.130;8.710;2023-06-22T10:49:38;6.85;;;6.25;;
40953;SDS011;26686;50.130;8.710;2023-06-22T10:54:40;5.45;;;4.93;;
40953;SDS011;26686;50.130;8.710;2023-06-22T10:59:42;5.93;;;4.68;;
40953;SDS011;26686;50.130;8.710;2023-06-22T11:04:43;8.45;;;5.22;;
40953;SDS011;26686;50.130;8.710;2023-06-22T11:09:45;5.35;;;4.95;;
40953;SDS011;26686;50.130;8.710;2023-06-22T11:14:47;6.93;;;6.13;;
40953;SDS011;26686;50.130;8.710;2023-06-22T11:19:48;5.93;;;5.40;;
40953;SDS011;26686;50.130;8.710;2023-06-22T11:24:49;6.05;;;5.55;;
40953;SDS011;26686;50.130;8.710;2023-06-22T11:29:51;6.15;;;5.50;;
40953;SDS011;26686;50.130;8.710;2023-06-22T11:34:55;6.30;;;5.38;;
40953;SDS011;26686;50.130;8.710;2023-06-22T11:39:56;6.30;;;5.70;;
40953;SDS011;26686;50.130;8.710;2023-06-22T11:45:07;7.68;;;6.60;;
40953;SDS011;26686;50.130;8.710;2023-06-22T11:50:09;6.70;;;5.53;;
40953;SDS011;26686;50.130;8.710;2023-06-22T11:55:11;6.75;;;5.75;;
40953;SDS011;26686;50.130;8.710;2023-06-22T12:00:14;6.47;;;5.85;;
40953;SDS011;26686;50.130;8.710;2023-06-22T12:05:19;6.78;;;6.07;;
40953;SDS011;26686;50.130;8.710;2023-06-22T12:10:25;7.45;;;5.85;;
40953;SDS011;26686;50.130;8.710;2023-06-22T12:15:30;10.02;;;6.47;;
40953;SDS011;26686;50.130;8.710;2023-06-22T12:20:32;7.95;;;6.70;;
40953;SDS011;26686;50.130;8.710;2023-06-22T12:25:33;8.65;;;6.38;;
40953;SDS011;26686;50.130;8.710;2023-06-22T12:30:35;8.07;;;6.40;;
40953;SDS011;26686;50.130;8.710;2023-06-22T12:35:36;7.78;;;6.68;;
40953;SDS011;26686;50.130;8.710;2023-06-22T12:40:40;7.22;;;6.53;;
40953;SDS011;26686;50.130;8.710;2023-06-22T12:45:42;6.82;;;6.13;;
40953;SDS011;26686;50.130;8.710;2023-06-22T12:50:44;7.05;;;6.20;;
40953;SDS011;26686;50.130;8.710;2023-06-22T12:55:45;9.60;;;6.55;;
40953;SDS011;26686;50.130;8.710;2023-06-22T13:00:47;9.85;;;6.43;;
40953;SDS011;26686;50.130;8.710;2023-06-22T13:05:49;8.93;;;6.57;;
40953;SDS011;26686;50.130;8.710;2023-06-22T13:10:51;8.38;;;5.90;;
40953;SDS011;26686;50.130;8.710;2023-06-22T13:15:52;8.75;;;6.28;;
40953;SDS011;26686;50.130;8.710;2023-06-22T13:20:56;8.52;;;6.68;;
40953;SDS011;26686;50.130;8.710;2023-06-22T13:25:59;6.95;;;6.28;;
40953;SDS011;26686;50.130;8.710;2023-06-22T13:31:01;9.30;;;6.70;;
40953;SDS011;26686;50.130;8.710;2023-06-22T13:36:20;7.75;;;6.95;;
40953;SDS011;26686;50.130;8.710;2023-06-22T13:41:24;7.57;;;6.60;;
40953;SDS011;26686;50.130;8.710;2023-06-22T13:46:43;8.15;;;6.80;;
40953;SDS011;26686;50.130;8.710;2023-06-22T13:52:02;9.40;;;6.82;;
40953;SDS011;26686;50.130;8.710;2023-06-22T13:57:08;7.20;;;6.50;;
40953;SDS011;26686;50.130;8.710;2023-06-22T14:02:09;8.85;;;6.75;;
40953;SDS011;26686;50.130;8.710;2023-06-22T14:07:11;8.60;;;6.75;;
40953;SDS011;26686;50.130;8.710;2023-06-22T14:12:16;7.78;;;6.97;;
40953;SDS011;26686;50.130;8.710;2023-06-22T14:17:19;18.30;;;8.25;;
40953;SDS011;26686;50.130;8.710;2023-06-22T14:22:25;8.35;;;6.47;;
40953;SDS011;26686;50.130;8.710;2023-06-22T14:27:28;9.77;;;6.57;;
40953;SDS011;26686;50.130;8.710;2023-06-22T14:32:29;10.55;;;6.35;;
40953;SDS011;26686;50.130;8.710;2023-06-22T14:37:31;7.20;;;5.95;;
40953;SDS011;26686;50.130;8.710;2023-06-22T14:42:32;7.43;;;5.70;;
40953;SDS011;26686;50.130;8.710;2023-06-22T14:47:34;11.10;;;5.70;;
40953;SDS011;26686;50.130;8.710;2023-06-22T14:52:36;7.50;;;4.88;;
40953;SDS011;26686;50.130;8.710;2023-06-22T14:57:38;11.25;;;5.55;;
40953;SDS011;26686;50.130;8.710;2023-06-22T15:02:40;10.48;;;4.75;;
40953;SDS011;26686;50.130;8.710;2023-06-22T15:07:42;10.32;;;4.78;;
40953;SDS011;26686;50.130;8.710;2023-06-22T15:12:44;10.73;;;5.00;;
40953;SDS011;26686;50.130;8.710;2023-06-22T15:17:45;7.03;;;4.55;;
40953;SDS011;26686;50.130;8.710;2023-06-22T15:27:49;11.55;;;4.53;;
40953;SDS011;26686;50.130;8.710;2023-06-22T15:32:50;7.95;;;4.00;;
40953;SDS011;26686;50.130;8.710;2023-06-22T15:37:52;6.53;;;3.88;;
40953;SDS011;26686;50.130;8.710;2023-06-22T15:42:54;10.30;;;4.70;;
40953;SDS011;26686;50.130;8.710;2023-06-22T15:47:56;6.53;;;4.13;;
40953;SDS011;26686;50.130;8.710;2023-06-22T15:52:57;8.88;;;4.43;;
40953;SDS011;26686;50.130;8.710;2023-06-22T15:57:59;9.02;;;4.07;;
40953;SDS011;26686;50.130;8.710;2023-06-22T16:03:00;9.98;;;4.65;;
40953;SDS011;26686;50.130;8.710;2023-06-22T16:13:04;6.57;;;3.85;;
40953;SDS011;26686;50.130;8.710;2023-06-22T16:18:06;10.47;;;4.70;;
40953;SDS011;26686;50.130;8.710;2023-06-22T16:23:09;8.35;;;2.83;;
40953;SDS011;26686;50.130;8.710;2023-06-22T16:28:10;7.37;;;2.93;;
40953;SDS011;26686;50.130;8.710;2023-06-22T16:33:12;10.45;;;3.40;;
40953;SDS011;26686;50.130;8.710;2023-06-22T16:38:13;8.68;;;3.17;;
40953;SDS011;26686;50.130;8.710;2023-06-22T16:43:15;7.18;;;1.73;;
40953;SDS011;26686;50.130;8.710;2023-06-22T16:48:16;5.97;;;2.30;;
40953;SDS011;26686;50.130;8.710;2023-06-22T16:53:18;6.30;;;1.88;;
40953;SDS011;26686;50.130;8.710;2023-06-22T16:58:21;4.38;;;2.25;;
40953;SDS011;26686;50.130;8.710;2023-06-22T17:03:28;7.18;;;2.58;;
40953;SDS011;26686;50.130;8.710;2023-06-22T17:08:32;4.88;;;1.75;;
40953;SDS011;26686;50.130;8.710;2023-06-22T17:13:35;4.47;;;2.35;;
40953;SDS011;26686;50.130;8.710;2023-06-22T17:18:37;6.18;;;2.50;;
40953;SDS011;26686;50.130;8.710;2023-06-22T17:23:40;4.22;;;1.90;;
40953;SDS011;26686;50.130;8.710;2023-06-22T17:28:49;4.15;;;2.15;;
40953;SDS011;26686;50.130;8.710;2023-06-22T17:33:52;4.32;;;1.98;;
40953;SDS011;26686;50.130;8.710;2023-06-22T17:38:59;5.25;;;2.20;;
40953;SDS011;26686;50.130;8.710;2023-06-22T17:44:01;5.63;;;2.90;;
40953;SDS011;26686;50.130;8.710;2023-06-22T17:49:09;3.88;;;2.10;;
40953;SDS011;26686;50.130;8.710;2023-06-22T17:54:11;6.30;;;3.05;;
40953;SDS011;26686;50.130;8.710;2023-06-22T17:59:13;5.57;;;2.53;;
40953;SDS011;26686;50.130;8.710;2023-06-22T18:04:17;6.32;;;2.50;;
40953;SDS011;26686;50.130;8.710;2023-06-22T18:09:20;6.70;;;2.33;;
40953;SDS011;26686;50.130;8.710;2023-06-22T18:14:22;5.30;;;2.60;;
40953;SDS011;26686;50.130;8.710;2023-06-22T18:19:24;5.70;;;2.88;;
40953;SDS011;26686;50.130;8.710;2023-06-22T18:24:26;7.53;;;3.00;;
40953;SDS011;26686;50.130;8.710;2023-06-22T18:29:28;4.23;;;2.80;;
40953;SDS011;26686;50.130;8.710;2023-06-22T18:34:33;5.55;;;3.10;;
40953;SDS011;26686;50.130;8.710;2023-06-22T18:39:36;4.15;;;2.55;;
40953;SDS011;26686;50.130;8.710;2023-06-22T18:44:40;5.07;;;2.85;;
40953;SDS011;26686;50.130;8.710;2023-06-22T18:54:45;4.60;;;2.90;;
40953;SDS011;26686;50.130;8.710;2023-06-22T19:10:23;6.28;;;4.05;;
40953;SDS011;26686;50.130;8.710;2023-06-22T19:15:31;7.32;;;4.05;;
40953;SDS011;26686;50.130;8.710;2023-06-22T19:20:36;5.22;;;3.95;;
40953;SDS011;26686;50.130;8.710;2023-06-22T19:30:46;7.47;;;4.07;;
40953;SDS011;26686;50.130;8.710;2023-06-22T19:35:48;6.88;;;4.90;;
40953;SDS011;26686;50.130;8.710;2023-06-22T19:40:51;8.18;;;4.60;;
40953;SDS011;26686;50.130;8.710;2023-06-22T19:45:53;6.45;;;3.83;;
40953;SDS011;26686;50.130;8.710;2023-06-22T19:50:55;6.80;;;4.47;;
40953;SDS011;26686;50.130;8.710;2023-06-22T19:56:02;6.75;;;4.85;;
40953;SDS011;26686;50.130;8.710;2023-06-22T20:01:05;6.40;;;4.38;;
40953;SDS011;26686;50.130;8.710;2023-06-22T20:06:13;7.80;;;4.38;;
40953;SDS011;26686;50.130;8.710;2023-06-22T20:11:27;7.50;;;4.55;;
40953;SDS011;26686;50.130;8.710;2023-06-22T20:16:31;6.88;;;5.38;;
40953;SDS011;26686;50.130;8.710;2023-06-22T20:21:32;5.72;;;4.45;;
40953;SDS011;26686;50.130;8.710;2023-06-22T20:26:40;7.63;;;4.70;;
40953;SDS011;26686;50.130;8.710;2023-06-22T20:31:43;8.45;;;5.18;;
40953;SDS011;26686;50.130;8.710;2023-06-22T20:36:44;7.70;;;4.65;;
40953;SDS011;26686;50.130;8.710;2023-06-22T20:41:45;5.55;;;3.65;;
40953;SDS011;26686;50.130;8.710;2023-06-22T20:46:47;4.85;;;2.50;;
40953;SDS011;26686;50.130;8.710;2023-06-22T20:51:48;4.03;;;1.55;;
40953;SDS011;26686;50.130;8.710;2023-06-22T20:56:50;3.33;;;1.42;;
40953;SDS011;26686;50.130;8.710;2023-06-22T21:01:53;0.98;;;0.63;;
40953;SDS011;26686;50.130;8.710;2023-06-22T21:06:57;1.70;;;0.45;;
40953;SDS011;26686;50.130;8.710;2023-06-22T21:11:59;1.90;;;0.50;;
40953;SDS011;26686;50.130;8.710;2023-06-22T21:17:00;0.80;;;0.30;;
40953;SDS011;26686;50.130;8.710;2023-06-22T21:22:02;1.67;;;0.50;;
40953;SDS011;26686;50.130;8.710;2023-06-22T21:27:04;2.45;;;0.40;;
40953;SDS011;26686;50.130;8.710;2023-06-22T21:32:05;0.28;;;0.13;;
40953;SDS011;26686;50.130;8.710;2023-06-22T21:37:07;1.30;;;0.30;;
40953;SDS011;26686;50.130;8.710;2023-06-22T21:42:09;1.27;;;0.10;;
40953;SDS011;26686;50.130;8.710;2023-06-22T21:47:10;1.95;;;0.30;;
40953;SDS011;26686;50.130;8.710;2023-06-22T21:52:12;1.23;;;0.43;;
40953;SDS011;26686;50.130;8.710;2023-06-22T21:57:14;0.47;;;0.30;;
40953;SDS011;26686;50.130;8.710;2023-06-22T22:02:15;0.70;;;0.22;;
40953;SDS011;26686;50.130;8.710;2023-06-22T22:07:19;1.45;;;0.35;;
40953;SDS011;26686;50.130;8.710;2023-06-22T22:12:21;0.82;;;0.20;;
40953;SDS011;26686;50.130;8.710;2023-06-22T22:17:23;0.10;;;0.05;;
40953;SDS011;26686;50.130;8.710;2023-06-22T22:22:24;0.38;;;0.20;;
40953;SDS011;26686;50.130;8.710;2023-06-22T22:27:25;0.73;;;0.10;;
40953;SDS011;26686;50.130;8.710;2023-06-22T22:32:27;0.90;;;0.20;;
40953;SDS011;26686;50.130;8.710;2023-06-22T22:37:28;1.50;;;0.68;;
40953;SDS011;26686;50.130;8.710;2023-06-22T22:42:30;0.52;;;0.10;;
40953;SDS011;26686;50.130;8.710;2023-06-22T22:47:34;0.63;;;0.20;;
40953;SDS011;26686;50.130;8.710;2023-06-22T22:52:35;0.60;;;0.40;;
40953;SDS011;26686;50.130;8.710;2023-06-22T23:02:40;0.90;;;0.77;;
40953;SDS011;26686;50.130;8.710;2023-06-22T23:07:45;1.40;;;1.23;;
40953;SDS011;26686;50.130;8.710;2023-06-22T23:12:47;1.90;;;1.10;;
40953;SDS011;26686;50.130;8.710;2023-06-22T23:17:48;3.55;;;1.48;;
40953;SDS011;26686;50.130;8.710;2023-06-22T23:22:56;1.80;;;1.50;;
40953;SDS011;26686;50.130;8.710;2023-06-22T23:28:00;3.17;;;1.83;;
40953;SDS011;26686;50.130;8.710;2023-06-22T23:33:02;1.92;;;1.75;;
40953;SDS011;26686;50.130;8.710;2023-06-22T23:38:04;1.92;;;1.65;;
40953;SDS011;26686;50.130;8.710;2023-06-22T23:43:05;2.42;;;1.95;;
40953;SDS011;26686;50.130;8.710;2023-06-22T23:48:09;2.83;;;2.60;;
40953;SDS011;26686;50.130;8.710;2023-06-22T23:53:12;3.17;;;2.88;;
40953;SDS011;26686;50.130;8.710;2023-06-22T23:58:14;4.82;;;3.60;;
